sensor_id;sensor_type;location;lat;lon;timestamp;P1;durP1;ratioP1;P2;durP2;ratioP2
28714;SDS011;15886;49.170;14.572;2023-08-01T00:02:37;4.18;;;2.60;;
28714;SDS011;15886;49.170;14.572;2023-08-01T00:05:30;4.35;;;2.45;;
28714;SDS011;15886;49.170;14.572;2023-08-01T00:08:07;5.68;;;2.47;;
28714;SDS011;15886;49.170;14.572;2023-08-01T00:11:15;5.78;;;2.72;;
28714;SDS011;15886;49.170;14.572;2023-08-01T00:14:07;4.47;;;2.70;;
28714;SDS011;15886;49.170;14.572;2023-08-01T00:16:53;5.05;;;2.97;;
28714;SDS011;15886;49.170;14.572;2023-08-01T00:19:23;12.43;;;3.25;;
28714;SDS011;15886;49.170;14.572;2023-08-01T00:22:04;5.32;;;2.72;;
28714;SDS011;15886;49.170;14.572;2023-08-01T00:25:06;4.38;;;2.60;;
28714;SDS011;15886;49.170;14.572;2023-08-01T00:27:43;6.60;;;2.83;;
28714;SDS011;15886;49.170;14.572;2023-08-01T00:30:23;5.90;;;3.28;;
28714;SDS011;15886;49.170;14.572;2023-08-01T00:32:58;5.25;;;3.17;;
28714;SDS011;15886;49.170;14.572;2023-08-01T00:35:53;5.15;;;2.63;;
28714;SDS011;15886;49.170;14.572;2023-08-01T00:38:22;10.95;;;2.75;;
28714;SDS011;15886;49.170;14.572;2023-08-01T00:40:51;4.25;;;2.20;;
28714;SDS011;15886;49.170;14.572;2023-08-01T00:43:20;4.18;;;2.67;;
28714;SDS011;15886;49.170;14.572;2023-08-01T00:45:50;4.03;;;2.50;;
28714;SDS011;15886;49.170;14.572;2023-08-01T00:48:45;4.35;;;2.53;;
28714;SDS011;15886;49.170;14.572;2023-08-01T00:51:28;4.80;;;2.05;;
28714;SDS011;15886;49.170;14.572;2023-08-01T00:54:32;3.08;;;2.33;;
28714;SDS011;15886;49.170;14.572;2023-08-01T00:57:07;3.50;;;2.63;;
28714;SDS011;15886;49.170;14.572;2023-08-01T00:59:38;6.32;;;3.15;;
28714;SDS011;15886;49.170;14.572;2023-08-01T01:02:11;5.18;;;3.13;;
28714;SDS011;15886;49.170;14.572;2023-08-01T01:04:46;4.72;;;2.47;;
28714;SDS011;15886;49.170;14.572;2023-08-01T01:07:49;5.15;;;2.75;;
28714;SDS011;15886;49.170;14.572;2023-08-01T01:11:15;5.75;;;2.92;;
28714;SDS011;15886;49.170;14.572;2023-08-01T01:13:44;4.45;;;2.83;;
28714;SDS011;15886;49.170;14.572;2023-08-01T01:16:13;8.50;;;3.25;;
28714;SDS011;15886;49.170;14.572;2023-08-01T01:19:08;3.38;;;2.75;;
28714;SDS011;15886;49.170;14.572;2023-08-01T01:21:50;5.35;;;3.08;;
28714;SDS011;15886;49.170;14.572;2023-08-01T01:24:26;6.85;;;2.83;;
28714;SDS011;15886;49.170;14.572;2023-08-01T01:27:01;11.15;;;3.10;;
28714;SDS011;15886;49.170;14.572;2023-08-01T01:29:37;5.45;;;2.70;;
28714;SDS011;15886;49.170;14.572;2023-08-01T01:32:11;11.73;;;3.03;;
28714;SDS011;15886;49.170;14.572;2023-08-01T01:34:47;13.43;;;3.40;;
28714;SDS011;15886;49.170;14.572;2023-08-01T01:37:33;5.72;;;3.10;;
28714;SDS011;15886;49.170;14.572;2023-08-01T01:40:16;3.92;;;2.45;;
28714;SDS011;15886;49.170;14.572;2023-08-01T01:43:22;8.75;;;2.55;;
28714;SDS011;15886;49.170;14.572;2023-08-01T01:46:12;6.28;;;3.40;;
28714;SDS011;15886;49.170;14.572;2023-08-01T01:48:47;5.13;;;2.92;;
28714;SDS011;15886;49.170;14.572;2023-08-01T01:51:27;6.30;;;3.30;;
28714;SDS011;15886;49.170;14.572;2023-08-01T01:54:05;4.95;;;3.05;;
28714;SDS011;15886;49.170;14.572;2023-08-01T01:56:41;4.70;;;3.42;;
28714;SDS011;15886;49.170;14.572;2023-08-01T01:59:10;4.07;;;2.83;;
28714;SDS011;15886;49.170;14.572;2023-08-01T02:01:38;5.25;;;3.50;;
28714;SDS011;15886;49.170;14.572;2023-08-01T02:04:07;3.78;;;2.85;;
28714;SDS011;15886;49.170;14.572;2023-08-01T02:06:39;4.78;;;2.95;;
28714;SDS011;15886;49.170;14.572;2023-08-01T02:09:11;7.85;;;3.13;;
28714;SDS011;15886;49.170;14.572;2023-08-01T02:11:55;3.75;;;2.50;;
28714;SDS011;15886;49.170;14.572;2023-08-01T02:15:05;7.50;;;3.00;;
28714;SDS011;15886;49.170;14.572;2023-08-01T02:17:33;7.00;;;3.10;;
28714;SDS011;15886;49.170;14.572;2023-08-01T02:20:02;4.97;;;3.55;;
28714;SDS011;15886;49.170;14.572;2023-08-01T02:22:30;6.18;;;3.00;;
28714;SDS011;15886;49.170;14.572;2023-08-01T02:24:59;5.63;;;3.28;;
28714;SDS011;15886;49.170;14.572;2023-08-01T02:27:27;5.20;;;3.10;;
28714;SDS011;15886;49.170;14.572;2023-08-01T02:29:55;6.10;;;3.17;;
28714;SDS011;15886;49.170;14.572;2023-08-01T02:32:23;8.75;;;2.85;;
28714;SDS011;15886;49.170;14.572;2023-08-01T02:34:52;6.15;;;3.47;;
28714;SDS011;15886;49.170;14.572;2023-08-01T02:37:20;11.75;;;3.17;;
28714;SDS011;15886;49.170;14.572;2023-08-01T02:39:48;3.58;;;2.83;;
28714;SDS011;15886;49.170;14.572;2023-08-01T02:42:16;7.47;;;3.50;;
28714;SDS011;15886;49.170;14.572;2023-08-01T02:44:47;5.50;;;3.55;;
28714;SDS011;15886;49.170;14.572;2023-08-01T02:47:18;4.65;;;3.28;;
28714;SDS011;15886;49.170;14.572;2023-08-01T02:49:50;8.52;;;3.92;;
28714;SDS011;15886;49.170;14.572;2023-08-01T02:52:20;10.43;;;3.75;;
28714;SDS011;15886;49.170;14.572;2023-08-01T02:54:50;7.55;;;3.60;;
28714;SDS011;15886;49.170;14.572;2023-08-01T02:57:19;5.47;;;3.38;;
28714;SDS011;15886;49.170;14.572;2023-08-01T02:59:54;8.23;;;3.85;;
28714;SDS011;15886;49.170;14.572;2023-08-01T03:02:57;5.15;;;3.40;;
28714;SDS011;15886;49.170;14.572;2023-08-01T03:05:27;9.70;;;3.70;;
28714;SDS011;15886;49.170;14.572;2023-08-01T03:07:56;6.97;;;3.67;;
28714;SDS011;15886;49.170;14.572;2023-08-01T03:10:24;8.73;;;3.40;;
28714;SDS011;15886;49.170;14.572;2023-08-01T03:13:03;5.85;;;3.88;;
28714;SDS011;15886;49.170;14.572;2023-08-01T03:15:32;5.88;;;3.70;;
28714;SDS011;15886;49.170;14.572;2023-08-01T03:18:04;5.75;;;4.07;;
28714;SDS011;15886;49.170;14.572;2023-08-01T03:20:34;5.05;;;3.13;;
28714;SDS011;15886;49.170;14.572;2023-08-01T03:23:10;4.38;;;3.10;;
28714;SDS011;15886;49.170;14.572;2023-08-01T03:25:38;9.95;;;3.55;;
28714;SDS011;15886;49.170;14.572;2023-08-01T03:28:07;13.73;;;4.00;;
28714;SDS011;15886;49.170;14.572;2023-08-01T03:30:36;7.28;;;3.13;;
28714;SDS011;15886;49.170;14.572;2023-08-01T03:33:07;4.88;;;3.22;;
28714;SDS011;15886;49.170;14.572;2023-08-01T03:35:36;7.00;;;3.63;;
28714;SDS011;15886;49.170;14.572;2023-08-01T03:38:04;13.82;;;3.85;;
28714;SDS011;15886;49.170;14.572;2023-08-01T03:40:35;7.65;;;3.03;;
28714;SDS011;15886;49.170;14.572;2023-08-01T03:45:41;6.47;;;3.90;;
28714;SDS011;15886;49.170;14.572;2023-08-01T03:48:10;3.67;;;3.05;;
28714;SDS011;15886;49.170;14.572;2023-08-01T03:50:39;5.22;;;3.40;;
28714;SDS011;15886;49.170;14.572;2023-08-01T03:53:07;7.95;;;3.53;;
28714;SDS011;15886;49.170;14.572;2023-08-01T03:55:38;8.75;;;3.30;;
28714;SDS011;15886;49.170;14.572;2023-08-01T03:58:10;5.22;;;3.28;;
28714;SDS011;15886;49.170;14.572;2023-08-01T04:00:39;7.35;;;3.75;;
28714;SDS011;15886;49.170;14.572;2023-08-01T04:03:09;6.63;;;3.50;;
28714;SDS011;15886;49.170;14.572;2023-08-01T04:05:42;7.43;;;3.58;;
28714;SDS011;15886;49.170;14.572;2023-08-01T04:08:13;6.32;;;3.53;;
28714;SDS011;15886;49.170;14.572;2023-08-01T04:10:41;6.13;;;3.28;;
28714;SDS011;15886;49.170;14.572;2023-08-01T04:13:12;6.68;;;3.67;;
28714;SDS011;15886;49.170;14.572;2023-08-01T04:15:42;5.35;;;3.25;;
28714;SDS011;15886;49.170;14.572;2023-08-01T04:18:16;6.50;;;3.47;;
28714;SDS011;15886;49.170;14.572;2023-08-01T04:20:45;8.13;;;3.55;;
28714;SDS011;15886;49.170;14.572;2023-08-01T04:23:16;5.45;;;3.30;;
28714;SDS011;15886;49.170;14.572;2023-08-01T04:25:45;17.88;;;4.53;;
28714;SDS011;15886;49.170;14.572;2023-08-01T04:28:15;7.45;;;3.38;;
28714;SDS011;15886;49.170;14.572;2023-08-01T04:30:50;4.88;;;3.28;;
28714;SDS011;15886;49.170;14.572;2023-08-01T04:33:22;8.80;;;3.50;;
28714;SDS011;15886;49.170;14.572;2023-08-01T04:35:54;10.93;;;3.40;;
28714;SDS011;15886;49.170;14.572;2023-08-01T04:38:23;5.28;;;3.08;;
28714;SDS011;15886;49.170;14.572;2023-08-01T04:40:55;5.07;;;2.72;;
28714;SDS011;15886;49.170;14.572;2023-08-01T04:43:24;3.28;;;2.80;;
28714;SDS011;15886;49.170;14.572;2023-08-01T04:45:52;6.40;;;3.35;;
28714;SDS011;15886;49.170;14.572;2023-08-01T04:48:21;6.55;;;3.08;;
28714;SDS011;15886;49.170;14.572;2023-08-01T04:50:52;5.05;;;3.17;;
28714;SDS011;15886;49.170;14.572;2023-08-01T04:53:24;8.70;;;3.35;;
28714;SDS011;15886;49.170;14.572;2023-08-01T04:56:02;3.63;;;2.70;;
28714;SDS011;15886;49.170;14.572;2023-08-01T04:58:33;10.95;;;3.83;;
28714;SDS011;15886;49.170;14.572;2023-08-01T05:01:08;5.05;;;2.83;;
28714;SDS011;15886;49.170;14.572;2023-08-01T05:03:39;10.48;;;3.35;;
28714;SDS011;15886;49.170;14.572;2023-08-01T05:06:09;8.77;;;2.88;;
28714;SDS011;15886;49.170;14.572;2023-08-01T05:08:39;10.23;;;3.83;;
28714;SDS011;15886;49.170;14.572;2023-08-01T05:11:11;9.23;;;3.05;;
28714;SDS011;15886;49.170;14.572;2023-08-01T05:13:48;4.10;;;2.73;;
28714;SDS011;15886;49.170;14.572;2023-08-01T05:16:20;11.48;;;3.00;;
28714;SDS011;15886;49.170;14.572;2023-08-01T05:18:51;4.60;;;2.88;;
28714;SDS011;15886;49.170;14.572;2023-08-01T05:21:22;8.43;;;2.90;;
28714;SDS011;15886;49.170;14.572;2023-08-01T05:23:52;7.32;;;3.17;;
28714;SDS011;15886;49.170;14.572;2023-08-01T05:26:24;7.45;;;3.38;;
28714;SDS011;15886;49.170;14.572;2023-08-01T05:28:54;5.82;;;2.78;;
28714;SDS011;15886;49.170;14.572;2023-08-01T05:31:25;10.63;;;3.42;;
28714;SDS011;15886;49.170;14.572;2023-08-01T05:33:57;6.22;;;3.30;;
28714;SDS011;15886;49.170;14.572;2023-08-01T05:36:27;6.25;;;3.15;;
28714;SDS011;15886;49.170;14.572;2023-08-01T05:38:57;7.00;;;3.10;;
28714;SDS011;15886;49.170;14.572;2023-08-01T05:41:31;4.35;;;2.53;;
28714;SDS011;15886;49.170;14.572;2023-08-01T05:44:04;6.95;;;3.25;;
28714;SDS011;15886;49.170;14.572;2023-08-01T05:46:34;5.80;;;3.50;;
28714;SDS011;15886;49.170;14.572;2023-08-01T05:49:03;7.45;;;2.92;;
28714;SDS011;15886;49.170;14.572;2023-08-01T05:51:31;3.63;;;2.70;;
28714;SDS011;15886;49.170;14.572;2023-08-01T05:54:00;4.72;;;3.13;;
28714;SDS011;15886;49.170;14.572;2023-08-01T05:56:29;4.70;;;3.17;;
28714;SDS011;15886;49.170;14.572;2023-08-01T05:58:59;3.30;;;2.58;;
28714;SDS011;15886;49.170;14.572;2023-08-01T06:01:28;4.57;;;3.33;;
28714;SDS011;15886;49.170;14.572;2023-08-01T06:03:58;7.13;;;3.40;;
28714;SDS011;15886;49.170;14.572;2023-08-01T06:06:28;6.18;;;3.30;;
28714;SDS011;15886;49.170;14.572;2023-08-01T06:08:58;8.32;;;3.08;;
28714;SDS011;15886;49.170;14.572;2023-08-01T06:11:27;5.13;;;3.45;;
28714;SDS011;15886;49.170;14.572;2023-08-01T06:13:56;4.53;;;3.08;;
28714;SDS011;15886;49.170;14.572;2023-08-01T06:16:25;6.57;;;3.28;;
28714;SDS011;15886;49.170;14.572;2023-08-01T06:18:53;5.93;;;3.45;;
28714;SDS011;15886;49.170;14.572;2023-08-01T06:21:22;11.77;;;3.33;;
28714;SDS011;15886;49.170;14.572;2023-08-01T06:23:50;6.13;;;3.75;;
28714;SDS011;15886;49.170;14.572;2023-08-01T06:26:19;5.40;;;3.22;;
28714;SDS011;15886;49.170;14.572;2023-08-01T06:28:47;11.10;;;3.88;;
28714;SDS011;15886;49.170;14.572;2023-08-01T06:31:15;8.85;;;4.00;;
28714;SDS011;15886;49.170;14.572;2023-08-01T06:33:44;10.10;;;4.25;;
28714;SDS011;15886;49.170;14.572;2023-08-01T06:36:12;10.65;;;3.80;;
28714;SDS011;15886;49.170;14.572;2023-08-01T06:38:42;6.65;;;4.00;;
28714;SDS011;15886;49.170;14.572;2023-08-01T06:41:10;10.55;;;4.50;;
28714;SDS011;15886;49.170;14.572;2023-08-01T06:43:38;8.38;;;4.28;;
28714;SDS011;15886;49.170;14.572;2023-08-01T06:46:07;6.85;;;3.97;;
28714;SDS011;15886;49.170;14.572;2023-08-01T06:48:35;8.88;;;4.97;;
28714;SDS011;15886;49.170;14.572;2023-08-01T06:51:04;6.22;;;4.80;;
28714;SDS011;15886;49.170;14.572;2023-08-01T06:53:32;6.72;;;4.13;;
28714;SDS011;15886;49.170;14.572;2023-08-01T06:56:01;5.90;;;3.33;;
28714;SDS011;15886;49.170;14.572;2023-08-01T06:58:32;6.03;;;4.45;;
28714;SDS011;15886;49.170;14.572;2023-08-01T07:01:02;6.90;;;3.88;;
28714;SDS011;15886;49.170;14.572;2023-08-01T07:03:30;11.63;;;3.85;;
28714;SDS011;15886;49.170;14.572;2023-08-01T07:05:58;8.32;;;3.47;;
28714;SDS011;15886;49.170;14.572;2023-08-01T07:08:35;8.10;;;3.53;;
28714;SDS011;15886;49.170;14.572;2023-08-01T07:11:51;7.00;;;3.88;;
28714;SDS011;15886;49.170;14.572;2023-08-01T07:14:22;4.45;;;3.22;;
28714;SDS011;15886;49.170;14.572;2023-08-01T07:16:51;8.82;;;3.85;;
28714;SDS011;15886;49.170;14.572;2023-08-01T07:19:19;6.65;;;3.35;;
28714;SDS011;15886;49.170;14.572;2023-08-01T07:21:48;9.40;;;3.53;;
28714;SDS011;15886;49.170;14.572;2023-08-01T07:24:18;6.88;;;3.83;;
28714;SDS011;15886;49.170;14.572;2023-08-01T07:26:46;6.45;;;3.40;;
28714;SDS011;15886;49.170;14.572;2023-08-01T07:29:24;8.18;;;3.70;;
28714;SDS011;15886;49.170;14.572;2023-08-01T07:31:53;9.68;;;3.97;;
28714;SDS011;15886;49.170;14.572;2023-08-01T07:34:21;7.50;;;4.68;;
28714;SDS011;15886;49.170;14.572;2023-08-01T07:36:50;8.27;;;3.72;;
28714;SDS011;15886;49.170;14.572;2023-08-01T07:39:18;8.70;;;3.42;;
28714;SDS011;15886;49.170;14.572;2023-08-01T07:41:52;5.63;;;3.67;;
28714;SDS011;15886;49.170;14.572;2023-08-01T07:45:05;6.45;;;3.92;;
28714;SDS011;15886;49.170;14.572;2023-08-01T07:48:32;5.57;;;3.30;;
28714;SDS011;15886;49.170;14.572;2023-08-01T07:51:13;5.88;;;3.58;;
28714;SDS011;15886;49.170;14.572;2023-08-01T07:53:43;5.43;;;3.72;;
28714;SDS011;15886;49.170;14.572;2023-08-01T07:56:11;9.07;;;4.35;;
28714;SDS011;15886;49.170;14.572;2023-08-01T07:58:44;6.18;;;4.25;;
28714;SDS011;15886;49.170;14.572;2023-08-01T08:01:13;7.28;;;4.22;;
28714;SDS011;15886;49.170;14.572;2023-08-01T08:03:47;6.25;;;4.10;;
28714;SDS011;15886;49.170;14.572;2023-08-01T08:06:19;7.35;;;3.95;;
28714;SDS011;15886;49.170;14.572;2023-08-01T08:08:49;10.75;;;4.47;;
28714;SDS011;15886;49.170;14.572;2023-08-01T08:11:18;7.75;;;4.25;;
28714;SDS011;15886;49.170;14.572;2023-08-01T08:13:48;8.80;;;4.10;;
28714;SDS011;15886;49.170;14.572;2023-08-01T08:16:16;6.32;;;4.22;;
28714;SDS011;15886;49.170;14.572;2023-08-01T08:18:44;7.10;;;4.63;;
28714;SDS011;15886;49.170;14.572;2023-08-01T08:21:12;7.68;;;4.70;;
28714;SDS011;15886;49.170;14.572;2023-08-01T08:23:41;8.20;;;3.72;;
28714;SDS011;15886;49.170;14.572;2023-08-01T08:26:10;5.47;;;3.60;;
28714;SDS011;15886;49.170;14.572;2023-08-01T08:28:41;6.25;;;3.58;;
28714;SDS011;15886;49.170;14.572;2023-08-01T08:31:10;7.70;;;4.22;;
28714;SDS011;15886;49.170;14.572;2023-08-01T08:33:38;6.72;;;3.90;;
28714;SDS011;15886;49.170;14.572;2023-08-01T08:36:07;6.80;;;3.47;;
28714;SDS011;15886;49.170;14.572;2023-08-01T08:38:37;10.10;;;3.83;;
28714;SDS011;15886;49.170;14.572;2023-08-01T08:41:06;7.60;;;3.85;;
28714;SDS011;15886;49.170;14.572;2023-08-01T08:43:34;5.53;;;3.42;;
28714;SDS011;15886;49.170;14.572;2023-08-01T08:46:03;7.35;;;3.70;;
28714;SDS011;15886;49.170;14.572;2023-08-01T08:48:33;8.68;;;3.33;;
28714;SDS011;15886;49.170;14.572;2023-08-01T08:51:03;7.68;;;3.22;;
28714;SDS011;15886;49.170;14.572;2023-08-01T08:53:33;5.43;;;2.75;;
28714;SDS011;15886;49.170;14.572;2023-08-01T08:56:04;9.25;;;3.40;;
28714;SDS011;15886;49.170;14.572;2023-08-01T08:58:33;6.38;;;4.00;;
28714;SDS011;15886;49.170;14.572;2023-08-01T09:01:07;6.47;;;3.28;;
28714;SDS011;15886;49.170;14.572;2023-08-01T09:03:38;3.70;;;2.72;;
28714;SDS011;15886;49.170;14.572;2023-08-01T09:06:08;4.43;;;2.90;;
28714;SDS011;15886;49.170;14.572;2023-08-01T09:08:37;6.30;;;3.85;;
28714;SDS011;15886;49.170;14.572;2023-08-01T09:11:09;5.03;;;3.20;;
28714;SDS011;15886;49.170;14.572;2023-08-01T09:13:37;5.72;;;3.22;;
28714;SDS011;15886;49.170;14.572;2023-08-01T09:16:06;5.80;;;3.17;;
28714;SDS011;15886;49.170;14.572;2023-08-01T09:18:34;5.13;;;3.38;;
28714;SDS011;15886;49.170;14.572;2023-08-01T09:21:04;4.40;;;3.15;;
28714;SDS011;15886;49.170;14.572;2023-08-01T09:23:35;5.22;;;2.55;;
28714;SDS011;15886;49.170;14.572;2023-08-01T09:26:20;4.57;;;2.78;;
28714;SDS011;15886;49.170;14.572;2023-08-01T09:28:56;6.07;;;3.50;;
28714;SDS011;15886;49.170;14.572;2023-08-01T09:31:32;6.15;;;3.25;;
28714;SDS011;15886;49.170;14.572;2023-08-01T09:34:03;6.10;;;3.55;;
28714;SDS011;15886;49.170;14.572;2023-08-01T09:36:36;4.63;;;3.15;;
28714;SDS011;15886;49.170;14.572;2023-08-01T09:39:05;5.00;;;2.88;;
28714;SDS011;15886;49.170;14.572;2023-08-01T09:41:33;6.00;;;3.33;;
28714;SDS011;15886;49.170;14.572;2023-08-01T09:44:02;6.38;;;3.47;;
28714;SDS011;15886;49.170;14.572;2023-08-01T09:46:32;5.35;;;3.55;;
28714;SDS011;15886;49.170;14.572;2023-08-01T09:49:08;5.32;;;3.30;;
28714;SDS011;15886;49.170;14.572;2023-08-01T09:51:47;8.05;;;3.53;;
28714;SDS011;15886;49.170;14.572;2023-08-01T09:54:19;5.40;;;3.30;;
28714;SDS011;15886;49.170;14.572;2023-08-01T09:56:52;6.07;;;3.63;;
28714;SDS011;15886;49.170;14.572;2023-08-01T09:59:23;4.72;;;2.85;;
28714;SDS011;15886;49.170;14.572;2023-08-01T10:01:53;6.00;;;3.33;;
28714;SDS011;15886;49.170;14.572;2023-08-01T10:04:26;4.93;;;3.00;;
28714;SDS011;15886;49.170;14.572;2023-08-01T10:06:59;5.80;;;3.75;;
28714;SDS011;15886;49.170;14.572;2023-08-01T10:09:27;3.83;;;2.67;;
28714;SDS011;15886;49.170;14.572;2023-08-01T10:11:58;4.97;;;2.97;;
28714;SDS011;15886;49.170;14.572;2023-08-01T10:14:27;5.47;;;3.50;;
28714;SDS011;15886;49.170;14.572;2023-08-01T10:16:56;4.43;;;2.83;;
28714;SDS011;15886;49.170;14.572;2023-08-01T10:19:24;5.47;;;3.03;;
28714;SDS011;15886;49.170;14.572;2023-08-01T10:21:53;7.63;;;3.50;;
28714;SDS011;15886;49.170;14.572;2023-08-01T10:24:23;7.60;;;3.20;;
28714;SDS011;15886;49.170;14.572;2023-08-01T10:26:55;5.57;;;3.20;;
28714;SDS011;15886;49.170;14.572;2023-08-01T10:29:39;5.97;;;3.47;;
28714;SDS011;15886;49.170;14.572;2023-08-01T10:33:05;7.78;;;3.38;;
28714;SDS011;15886;49.170;14.572;2023-08-01T10:36:13;5.00;;;3.15;;
28714;SDS011;15886;49.170;14.572;2023-08-01T10:38:46;6.70;;;3.40;;
28714;SDS011;15886;49.170;14.572;2023-08-01T10:41:19;5.22;;;2.95;;
28714;SDS011;15886;49.170;14.572;2023-08-01T10:43:47;7.53;;;3.17;;
28714;SDS011;15886;49.170;14.572;2023-08-01T10:46:15;5.55;;;3.17;;
28714;SDS011;15886;49.170;14.572;2023-08-01T10:48:50;6.85;;;3.00;;
28714;SDS011;15886;49.170;14.572;2023-08-01T10:51:19;4.85;;;3.05;;
28714;SDS011;15886;49.170;14.572;2023-08-01T10:53:47;6.97;;;3.35;;
28714;SDS011;15886;49.170;14.572;2023-08-01T10:56:16;6.03;;;3.50;;
28714;SDS011;15886;49.170;14.572;2023-08-01T10:58:46;6.90;;;3.40;;
28714;SDS011;15886;49.170;14.572;2023-08-01T11:01:14;5.22;;;3.42;;
28714;SDS011;15886;49.170;14.572;2023-08-01T11:03:43;6.00;;;3.28;;
28714;SDS011;15886;49.170;14.572;2023-08-01T11:06:11;5.47;;;2.97;;
28714;SDS011;15886;49.170;14.572;2023-08-01T11:08:40;8.15;;;3.88;;
28714;SDS011;15886;49.170;14.572;2023-08-01T11:11:11;5.70;;;3.15;;
28714;SDS011;15886;49.170;14.572;2023-08-01T11:13:41;4.78;;;3.22;;
28714;SDS011;15886;49.170;14.572;2023-08-01T11:16:10;7.32;;;3.92;;
28714;SDS011;15886;49.170;14.572;2023-08-01T11:18:43;6.68;;;3.35;;
28714;SDS011;15886;49.170;14.572;2023-08-01T11:21:23;7.15;;;3.63;;
28714;SDS011;15886;49.170;14.572;2023-08-01T11:23:56;5.88;;;3.22;;
28714;SDS011;15886;49.170;14.572;2023-08-01T11:26:26;6.38;;;3.83;;
28714;SDS011;15886;49.170;14.572;2023-08-01T11:28:55;6.15;;;3.58;;
28714;SDS011;15886;49.170;14.572;2023-08-01T11:31:25;7.03;;;3.72;;
28714;SDS011;15886;49.170;14.572;2023-08-01T11:33:59;5.97;;;3.10;;
28714;SDS011;15886;49.170;14.572;2023-08-01T11:36:27;5.15;;;3.00;;
28714;SDS011;15886;49.170;14.572;2023-08-01T11:38:57;6.43;;;2.80;;
28714;SDS011;15886;49.170;14.572;2023-08-01T11:41:28;5.18;;;3.05;;
28714;SDS011;15886;49.170;14.572;2023-08-01T11:44:00;5.60;;;3.20;;
28714;SDS011;15886;49.170;14.572;2023-08-01T11:46:30;10.30;;;3.40;;
28714;SDS011;15886;49.170;14.572;2023-08-01T11:49:03;6.13;;;3.45;;
28714;SDS011;15886;49.170;14.572;2023-08-01T11:51:42;10.68;;;2.70;;
28714;SDS011;15886;49.170;14.572;2023-08-01T11:54:13;4.95;;;2.90;;
28714;SDS011;15886;49.170;14.572;2023-08-01T11:56:45;4.65;;;2.92;;
28714;SDS011;15886;49.170;14.572;2023-08-01T11:59:15;5.28;;;2.72;;
28714;SDS011;15886;49.170;14.572;2023-08-01T12:01:45;4.10;;;2.50;;
28714;SDS011;15886;49.170;14.572;2023-08-01T12:04:26;5.35;;;3.17;;
28714;SDS011;15886;49.170;14.572;2023-08-01T12:06:55;6.40;;;2.70;;
28714;SDS011;15886;49.170;14.572;2023-08-01T12:09:23;3.90;;;2.78;;
28714;SDS011;15886;49.170;14.572;2023-08-01T12:11:59;3.55;;;2.40;;
28714;SDS011;15886;49.170;14.572;2023-08-01T12:14:29;4.15;;;2.58;;
28714;SDS011;15886;49.170;14.572;2023-08-01T12:16:59;6.38;;;2.55;;
28714;SDS011;15886;49.170;14.572;2023-08-01T12:19:27;9.65;;;2.83;;
28714;SDS011;15886;49.170;14.572;2023-08-01T12:21:55;4.85;;;2.40;;
28714;SDS011;15886;49.170;14.572;2023-08-01T12:24:25;5.45;;;2.58;;
28714;SDS011;15886;49.170;14.572;2023-08-01T12:26:55;4.00;;;2.47;;
28714;SDS011;15886;49.170;14.572;2023-08-01T12:29:24;5.35;;;2.72;;
28714;SDS011;15886;49.170;14.572;2023-08-01T12:31:53;4.28;;;2.33;;
28714;SDS011;15886;49.170;14.572;2023-08-01T12:34:21;4.88;;;2.22;;
28714;SDS011;15886;49.170;14.572;2023-08-01T12:36:49;3.40;;;2.25;;
28714;SDS011;15886;49.170;14.572;2023-08-01T12:39:20;3.80;;;2.65;;
28714;SDS011;15886;49.170;14.572;2023-08-01T12:41:50;6.43;;;2.72;;
28714;SDS011;15886;49.170;14.572;2023-08-01T12:44:22;4.50;;;1.90;;
28714;SDS011;15886;49.170;14.572;2023-08-01T12:46:51;3.95;;;2.83;;
28714;SDS011;15886;49.170;14.572;2023-08-01T12:49:21;9.10;;;2.25;;
28714;SDS011;15886;49.170;14.572;2023-08-01T12:51:49;3.50;;;2.00;;
28714;SDS011;15886;49.170;14.572;2023-08-01T12:54:18;3.33;;;1.70;;
28714;SDS011;15886;49.170;14.572;2023-08-01T12:56:47;3.47;;;1.80;;
28714;SDS011;15886;49.170;14.572;2023-08-01T12:59:15;4.43;;;1.95;;
28714;SDS011;15886;49.170;14.572;2023-08-01T13:01:45;4.45;;;2.42;;
28714;SDS011;15886;49.170;14.572;2023-08-01T13:04:13;3.15;;;1.98;;
28714;SDS011;15886;49.170;14.572;2023-08-01T13:06:41;3.10;;;2.10;;
28714;SDS011;15886;49.170;14.572;2023-08-01T13:09:12;3.63;;;2.50;;
28714;SDS011;15886;49.170;14.572;2023-08-01T13:11:41;5.03;;;2.92;;
28714;SDS011;15886;49.170;14.572;2023-08-01T13:14:10;4.82;;;2.47;;
28714;SDS011;15886;49.170;14.572;2023-08-01T13:16:38;4.72;;;2.03;;
28714;SDS011;15886;49.170;14.572;2023-08-01T13:19:07;3.58;;;2.15;;
28714;SDS011;15886;49.170;14.572;2023-08-01T13:21:35;4.13;;;1.80;;
28714;SDS011;15886;49.170;14.572;2023-08-01T13:24:03;4.75;;;1.95;;
28714;SDS011;15886;49.170;14.572;2023-08-01T13:26:32;3.22;;;1.80;;
28714;SDS011;15886;49.170;14.572;2023-08-01T13:29:00;3.03;;;1.70;;
28714;SDS011;15886;49.170;14.572;2023-08-01T13:31:28;2.85;;;1.77;;
28714;SDS011;15886;49.170;14.572;2023-08-01T13:33:59;2.95;;;2.10;;
28714;SDS011;15886;49.170;14.572;2023-08-01T13:36:27;2.97;;;1.85;;
28714;SDS011;15886;49.170;14.572;2023-08-01T13:38:55;4.53;;;1.90;;
28714;SDS011;15886;49.170;14.572;2023-08-01T13:41:24;2.58;;;1.73;;
28714;SDS011;15886;49.170;14.572;2023-08-01T13:43:52;3.28;;;1.90;;
28714;SDS011;15886;49.170;14.572;2023-08-01T13:46:20;2.90;;;2.00;;
28714;SDS011;15886;49.170;14.572;2023-08-01T13:48:54;3.65;;;2.03;;
28714;SDS011;15886;49.170;14.572;2023-08-01T13:51:23;2.75;;;1.92;;
28714;SDS011;15886;49.170;14.572;2023-08-01T13:53:51;3.53;;;1.60;;
28714;SDS011;15886;49.170;14.572;2023-08-01T13:56:19;2.47;;;1.50;;
28714;SDS011;15886;49.170;14.572;2023-08-01T13:58:49;2.47;;;1.50;;
28714;SDS011;15886;49.170;14.572;2023-08-01T14:01:17;2.92;;;1.92;;
28714;SDS011;15886;49.170;14.572;2023-08-01T14:03:48;12.45;;;2.03;;
28714;SDS011;15886;49.170;14.572;2023-08-01T14:06:16;2.92;;;1.67;;
28714;SDS011;15886;49.170;14.572;2023-08-01T14:08:45;5.32;;;2.25;;
28714;SDS011;15886;49.170;14.572;2023-08-01T14:11:13;4.13;;;1.90;;
28714;SDS011;15886;49.170;14.572;2023-08-01T14:13:41;2.35;;;1.55;;
28714;SDS011;15886;49.170;14.572;2023-08-01T14:16:09;3.80;;;1.73;;
28714;SDS011;15886;49.170;14.572;2023-08-01T14:18:38;2.15;;;1.30;;
28714;SDS011;15886;49.170;14.572;2023-08-01T14:21:06;3.08;;;1.17;;
28714;SDS011;15886;49.170;14.572;2023-08-01T14:23:34;4.30;;;1.60;;
28714;SDS011;15886;49.170;14.572;2023-08-01T14:26:04;2.67;;;1.77;;
28714;SDS011;15886;49.170;14.572;2023-08-01T14:28:32;2.10;;;1.50;;
28714;SDS011;15886;49.170;14.572;2023-08-01T14:31:01;2.30;;;1.58;;
28714;SDS011;15886;49.170;14.572;2023-08-01T14:33:30;2.92;;;1.42;;
28714;SDS011;15886;49.170;14.572;2023-08-01T14:35:58;2.63;;;1.65;;
28714;SDS011;15886;49.170;14.572;2023-08-01T14:38:26;2.35;;;1.50;;
28714;SDS011;15886;49.170;14.572;2023-08-01T14:40:55;2.28;;;1.15;;
28714;SDS011;15886;49.170;14.572;2023-08-01T14:43:27;2.25;;;1.30;;
28714;SDS011;15886;49.170;14.572;2023-08-01T14:45:55;2.05;;;1.50;;
28714;SDS011;15886;49.170;14.572;2023-08-01T14:48:24;1.73;;;1.20;;
28714;SDS011;15886;49.170;14.572;2023-08-01T14:50:52;2.10;;;1.30;;
28714;SDS011;15886;49.170;14.572;2023-08-01T14:53:21;2.80;;;1.27;;
28714;SDS011;15886;49.170;14.572;2023-08-01T14:55:58;1.80;;;1.17;;
28714;SDS011;15886;49.170;14.572;2023-08-01T14:58:32;2.25;;;1.25;;
28714;SDS011;15886;49.170;14.572;2023-08-01T15:01:00;3.17;;;1.33;;
28714;SDS011;15886;49.170;14.572;2023-08-01T15:03:29;4.18;;;1.65;;
28714;SDS011;15886;49.170;14.572;2023-08-01T15:06:04;2.95;;;1.50;;
28714;SDS011;15886;49.170;14.572;2023-08-01T15:08:35;2.97;;;1.38;;